Time;durP1;ratioP1;P1;durP2;ratioP2;P2;SDS_P1;SDS_P2;PMS_P1;PMS_P2;Temp;Humidity;BMP_temperature;BMP_pressure;BME280_temperature;BME280_humidity;BME280_pressure;Samples;Min_cycle;Max_cycle;Signal;HPM_P1;HPM_P2
2023/04/16 00:01:18;;;;;;;11.03;9.00;;;7.50;99.90;;;;;;487285;244;27641;-76
2023/04/16 00:03:20;;;;;;;12.53;10.20;;;7.50;99.90;;;;;;487262;244;27864;-75
2023/04/16 00:05:21;;;;;;;11.67;9.83;;;7.50;99.90;;;;;;487207;244;28266;-76
2023/04/16 00:07:22;;;;;;;12.07;9.27;;;7.50;99.90;;;;;;487272;244;28463;-76
2023/04/16 00:09:23;;;;;;;11.67;9.43;;;7.50;99.90;;;;;;487311;244;28435;-76
2023/04/16 00:11:25;;;;;;;11.17;9.73;;;7.50;99.90;;;;;;487288;244;28088;-75
2023/04/16 00:13:26;;;;;;;12.40;10.97;;;7.50;99.90;;;;;;487286;244;27910;-76
2023/04/16 00:15:27;;;;;;;12.93;9.27;;;7.50;99.90;;;;;;487243;244;27970;-75
2023/04/16 00:17:28;;;;;;;12.30;9.70;;;7.50;99.90;;;;;;487238;244;27925;-76
2023/04/16 00:19:29;;;;;;;15.50;11.33;;;7.40;99.90;;;;;;487316;244;27914;-76
2023/04/16 00:21:31;;;;;;;13.43;9.90;;;7.40;99.90;;;;;;487313;244;27958;-76
2023/04/16 00:23:32;;;;;;;14.00;10.67;;;7.40;99.90;;;;;;487320;244;28094;-75
2023/04/16 00:25:33;;;;;;;14.60;10.40;;;7.50;99.90;;;;;;487239;243;27742;-75
2023/04/16 00:27:35;;;;;;;12.27;9.47;;;7.40;99.90;;;;;;487285;244;28120;-76
2023/04/16 00:29:36;;;;;;;12.00;9.37;;;7.40;99.90;;;;;;487343;244;28315;-75
2023/04/16 00:31:37;;;;;;;14.37;9.50;;;7.40;99.90;;;;;;487314;244;28325;-75
2023/04/16 00:33:38;;;;;;;12.97;10.37;;;7.50;99.90;;;;;;487281;244;28398;-76
2023/04/16 00:35:39;;;;;;;13.67;10.47;;;7.40;99.90;;;;;;487213;243;27770;-76
2023/04/16 00:37:41;;;;;;;12.00;9.40;;;7.40;99.90;;;;;;487267;244;27556;-76
2023/04/16 00:39:42;;;;;;;11.03;9.40;;;7.40;99.90;;;;;;487321;244;27681;-75
2023/04/16 00:41:43;;;;;;;11.73;9.13;;;7.50;99.90;;;;;;487303;243;27931;-76
2023/04/16 00:43:45;;;;;;;11.43;9.20;;;7.40;99.90;;;;;;487299;244;27928;-75
2023/04/16 00:45:46;;;;;;;14.43;10.20;;;7.40;99.90;;;;;;487202;244;27998;-76
2023/04/16 00:47:47;;;;;;;13.90;10.00;;;7.40;99.90;;;;;;487281;243;27795;-75
2023/04/16 00:49:48;;;;;;;12.37;9.27;;;7.40;99.90;;;;;;487347;244;28370;-76
2023/04/16 00:51:49;;;;;;;12.27;9.10;;;7.40;99.90;;;;;;487334;244;28337;-75
2023/04/16 00:53:51;;;;;;;13.30;9.50;;;7.40;99.90;;;;;;487341;244;28232;-75
2023/04/16 00:55:52;;;;;;;11.70;9.37;;;7.40;99.90;;;;;;487274;244;27981;-75
2023/04/16 00:57:53;;;;;;;14.10;10.17;;;7.40;99.90;;;;;;487287;244;27923;-75
2023/04/16 00:59:54;;;;;;;11.10;8.70;;;7.00;99.90;;;;;;487256;244;28019;-75
2023/04/16 01:01:56;;;;;;;13.53;9.70;;;7.40;99.90;;;;;;487284;244;27888;-75
2023/04/16 01:03:57;;;;;;;14.43;9.03;;;7.40;99.90;;;;;;487311;244;27957;-75
2023/04/16 01:05:58;;;;;;;9.53;8.37;;;7.30;99.90;;;;;;487250;244;27828;-76
2023/04/16 01:08:00;;;;;;;15.13;9.20;;;7.40;99.90;;;;;;487274;244;27555;-75
2023/04/16 01:10:01;;;;;;;12.20;9.27;;;7.40;99.90;;;;;;487276;244;28087;-76
2023/04/16 01:12:02;;;;;;;12.80;9.07;;;7.40;99.90;;;;;;487288;244;27877;-75
2023/04/16 01:14:03;;;;;;;13.27;9.80;;;7.40;99.90;;;;;;487332;244;28502;-75
2023/04/16 01:16:05;;;;;;;15.67;9.97;;;7.40;99.90;;;;;;487264;244;27993;-76
2023/04/16 01:18:06;;;;;;;11.60;8.83;;;7.40;99.90;;;;;;487279;244;28392;-75
2023/04/16 01:20:07;;;;;;;14.30;9.80;;;7.40;99.90;;;;;;487278;244;28535;-75
2023/04/16 01:22:08;;;;;;;13.00;8.97;;;7.40;99.90;;;;;;487291;244;27524;-76
2023/04/16 01:24:10;;;;;;;14.40;9.80;;;7.40;99.90;;;;;;487316;244;27870;-75
2023/04/16 01:26:11;;;;;;;13.17;9.10;;;7.20;99.90;;;;;;487243;244;28008;-75
2023/04/16 01:28:12;;;;;;;11.77;8.30;;;7.90;99.90;;;;;;487292;244;27974;-75
2023/04/16 01:30:13;;;;;;;12.63;9.13;;;7.30;99.90;;;;;;487271;244;27993;-75
2023/04/16 01:32:14;;;;;;;13.40;9.33;;;7.40;99.90;;;;;;487291;244;27902;-76
2023/04/16 01:34:16;;;;;;;14.20;9.30;;;7.40;99.90;;;;;;487286;244;27911;-76
2023/04/16 01:36:17;;;;;;;14.10;9.00;;;7.40;99.90;;;;;;487282;244;27956;-76
2023/04/16 01:38:18;;;;;;;12.73;9.20;;;7.30;99.90;;;;;;487208;244;28279;-75
2023/04/16 01:40:19;;;;;;;12.40;9.57;;;7.40;99.90;;;;;;487143;244;28911;-76
2023/04/16 01:42:21;;;;;;;14.10;9.73;;;7.30;99.90;;;;;;487289;244;28523;-75
2023/04/16 01:44:22;;;;;;;12.17;8.97;;;7.40;99.90;;;;;;487228;244;28400;-75
2023/04/16 01:46:23;;;;;;;11.87;8.70;;;7.40;99.90;;;;;;487281;244;27982;-76
2023/04/16 01:48:24;;;;;;;13.17;8.60;;;7.30;99.90;;;;;;487284;244;28009;-76
2023/04/16 01:50:26;;;;;;;11.80;8.67;;;7.40;99.90;;;;;;487288;244;27487;-76
2023/04/16 01:52:27;;;;;;;12.10;8.20;;;7.40;99.90;;;;;;487306;244;28049;-75
2023/04/16 01:54:28;;;;;;;12.13;9.13;;;7.40;99.90;;;;;;487247;244;28069;-80
2023/04/16 01:56:29;;;;;;;13.20;9.20;;;7.40;99.90;;;;;;487296;244;27871;-75
2023/04/16 01:58:31;;;;;;;10.53;7.93;;;7.30;99.90;;;;;;487304;244;27796;-75
2023/04/16 02:00:32;;;;;;;13.27;8.70;;;7.40;99.90;;;;;;487269;243;27952;-76
2023/04/16 02:02:33;;;;;;;12.63;8.97;;;7.40;99.90;;;;;;487308;244;27781;-76
2023/04/16 02:04:35;;;;;;;11.00;8.40;;;7.30;99.90;;;;;;487271;244;28459;-75
2023/04/16 02:06:36;;;;;;;14.13;10.27;;;7.30;99.90;;;;;;487315;244;28556;-75
2023/04/16 02:08:37;;;;;;;14.53;9.67;;;7.30;99.90;;;;;;487316;244;28247;-75
2023/04/16 02:10:38;;;;;;;13.43;9.70;;;7.30;99.90;;;;;;487281;244;27875;-75
2023/04/16 02:12:40;;;;;;;17.13;10.47;;;7.30;99.90;;;;;;487333;244;27529;-75
2023/04/16 02:14:41;;;;;;;14.50;10.20;;;7.30;99.90;;;;;;487277;244;27627;-75
2023/04/16 02:16:42;;;;;;;14.63;10.23;;;7.10;99.90;;;;;;487279;244;27823;-75
2023/04/16 02:18:43;;;;;;;17.40;12.37;;;7.30;99.90;;;;;;487263;244;28006;-75
2023/04/16 02:20:45;;;;;;;15.67;10.30;;;7.40;99.90;;;;;;487166;244;27883;-75
2023/04/16 02:22:46;;;;;;;19.00;10.70;;;7.30;99.90;;;;;;487266;244;27694;-76
2023/04/16 02:24:49;;;;;;;14.20;10.27;;;7.50;99.90;;;;;;487248;244;28300;-75
2023/04/16 02:26:48;;;;;;;15.77;11.13;;;7.30;99.90;;;;;;487158;244;28531;-76
2023/04/16 02:28:50;;;;;;;16.87;11.00;;;7.30;99.90;;;;;;487275;244;27811;-75
2023/04/16 02:30:51;;;;;;;13.43;10.20;;;7.30;99.90;;;;;;487232;244;27897;-76
2023/04/16 02:32:52;;;;;;;16.23;11.47;;;7.30;99.90;;;;;;487310;244;27919;-75
2023/04/16 02:34:54;;;;;;;15.83;10.50;;;7.20;99.90;;;;;;487230;244;27792;-75
2023/04/16 02:36:57;;;;;;;15.00;10.13;;;7.30;99.90;;;;;;487253;244;27508;-75
2023/04/16 02:38:56;;;;;;;16.63;11.93;;;7.30;99.90;;;;;;487167;244;27507;-76
2023/04/16 02:40:58;;;;;;;15.60;10.47;;;7.30;99.90;;;;;;487248;244;28496;-75
2023/04/16 02:42:58;;;;;;;13.97;9.43;;;7.30;99.90;;;;;;487263;244;28363;-76
2023/04/16 02:45:00;;;;;;;16.37;11.23;;;7.20;99.90;;;;;;487221;244;28384;-75
2023/04/16 02:47:01;;;;;;;16.00;10.80;;;7.30;99.90;;;;;;487295;244;28101;-76
2023/04/16 02:49:02;;;;;;;15.30;9.87;;;7.30;99.90;;;;;;487284;244;27929;-73
2023/04/16 02:51:03;;;;;;;17.60;11.23;;;7.20;99.90;;;;;;487294;244;28043;-76
2023/04/16 02:53:06;;;;;;;13.27;9.40;;;7.30;99.90;;;;;;487254;244;28508;-76
2023/04/16 02:55:06;;;;;;;14.80;10.00;;;7.20;99.90;;;;;;487174;244;28394;-75
2023/04/16 02:57:07;;;;;;;15.40;10.53;;;7.20;99.90;;;;;;487299;244;28413;-75
2023/04/16 02:59:08;;;;;;;16.53;12.00;;;7.30;99.90;;;;;;487253;244;27534;-75
2023/04/16 03:01:10;;;;;;;17.20;11.43;;;7.20;99.90;;;;;;487265;244;28056;-75
2023/04/16 03:03:11;;;;;;;13.40;10.37;;;7.30;99.90;;;;;;487270;244;28021;-75
2023/04/16 03:05:12;;;;;;;14.90;9.83;;;7.30;99.90;;;;;;487199;244;28163;-76
2023/04/16 03:07:13;;;;;;;12.50;9.50;;;7.30;99.90;;;;;;487293;244;28475;-76
2023/04/16 03:09:15;;;;;;;15.20;10.90;;;7.30;99.90;;;;;;487300;244;27870;-76
2023/04/16 03:11:16;;;;;;;16.10;10.47;;;7.20;99.90;;;;;;487300;244;27511;-76
2023/04/16 03:13:17;;;;;;;14.77;9.60;;;7.20;99.90;;;;;;487281;244;28355;-76
2023/04/16 03:15:18;;;;;;;16.77;11.23;;;7.30;99.90;;;;;;487219;244;29122;-76
2023/04/16 03:17:20;;;;;;;14.10;10.00;;;7.30;99.90;;;;;;487331;244;28200;-76
2023/04/16 03:19:21;;;;;;;16.40;11.63;;;7.30;99.90;;;;;;487319;244;27818;-76
2023/04/16 03:21:22;;;;;;;14.03;10.20;;;7.20;99.90;;;;;;487290;244;27583;-75
2023/04/16 03:23:23;;;;;;;15.67;10.33;;;7.20;99.90;;;;;;487244;244;27993;-73
2023/04/16 03:25:25;;;;;;;11.70;8.97;;;7.30;99.90;;;;;;487062;244;27663;-76
2023/04/16 03:27:26;;;;;;;13.50;10.33;;;7.20;99.90;;;;;;487304;244;27945;-75
2023/04/16 03:29:27;;;;;;;16.80;11.30;;;7.30;99.90;;;;;;487259;244;27550;-75
2023/04/16 03:31:28;;;;;;;14.00;9.87;;;7.30;99.90;;;;;;487259;244;28466;-75
2023/04/16 03:33:30;;;;;;;13.63;10.23;;;7.20;99.90;;;;;;487261;244;28545;-76
2023/04/16 03:35:32;;;;;;;13.13;9.33;;;7.30;99.90;;;;;;487128;243;28421;-75
2023/04/16 03:37:32;;;;;;;14.07;10.73;;;7.20;99.90;;;;;;487279;243;27920;-76
2023/04/16 03:39:33;;;;;;;15.23;10.07;;;7.30;99.90;;;;;;487305;244;28021;-75
2023/04/16 03:41:35;;;;;;;15.53;10.90;;;7.20;99.90;;;;;;487284;244;28003;-75
2023/04/16 03:43:36;;;;;;;17.70;11.57;;;7.20;99.90;;;;;;487262;244;27934;-73
2023/04/16 03:45:37;;;;;;;14.43;10.67;;;7.20;99.90;;;;;;487215;244;27914;-73
2023/04/16 03:47:39;;;;;;;16.83;11.47;;;7.20;99.90;;;;;;487266;244;27794;-73
2023/04/16 03:49:40;;;;;;;13.97;9.73;;;7.20;99.90;;;;;;487314;244;28003;-73
2023/04/16 03:51:41;;;;;;;17.10;11.30;;;7.20;99.90;;;;;;487294;244;28323;-72
2023/04/16 03:53:42;;;;;;;17.83;12.27;;;7.20;99.90;;;;;;487285;243;28412;-73
2023/04/16 03:55:44;;;;;;;17.20;11.73;;;7.20;99.90;;;;;;487233;244;27954;-76
2023/04/16 03:57:45;;;;;;;19.30;11.67;;;7.30;99.90;;;;;;487240;244;27914;-76
2023/04/16 03:59:46;;;;;;;17.80;11.47;;;7.20;99.90;;;;;;487300;244;27820;-75
2023/04/16 04:01:47;;;;;;;18.87;11.30;;;7.20;99.90;;;;;;487298;244;28306;-75
2023/04/16 04:03:49;;;;;;;15.27;10.73;;;7.20;99.90;;;;;;487286;244;27939;-75
2023/04/16 04:05:50;;;;;;;16.23;10.93;;;7.30;99.90;;;;;;487226;244;27764;-75
2023/04/16 04:07:51;;;;;;;17.20;11.87;;;7.20;99.90;;;;;;487269;244;28028;-75
2023/04/16 04:09:52;;;;;;;17.10;11.60;;;7.20;99.90;;;;;;487284;244;28015;-75
2023/04/16 04:11:54;;;;;;;19.30;12.80;;;7.20;99.90;;;;;;487299;244;28415;-75
2023/04/16 04:13:55;;;;;;;17.00;11.83;;;7.10;99.90;;;;;;487294;244;28523;-75
2023/04/16 04:15:56;;;;;;;21.60;13.60;;;7.10;99.90;;;;;;487245;244;27645;-75
2023/04/16 04:17:57;;;;;;;20.30;12.60;;;7.10;99.90;;;;;;487292;244;27940;-75
2023/04/16 04:19:59;;;;;;;18.90;12.03;;;7.10;99.90;;;;;;487270;244;27978;-75
2023/04/16 04:22:00;;;;;;;22.27;14.20;;;7.10;99.90;;;;;;487321;244;27597;-75
2023/04/16 04:24:01;;;;;;;21.80;13.30;;;7.00;99.90;;;;;;487293;244;27637;-76
2023/04/16 04:26:04;;;;;;;22.90;14.03;;;7.10;99.90;;;;;;487160;244;27831;-75
2023/04/16 04:28:04;;;;;;;20.00;12.60;;;7.10;99.90;;;;;;487147;244;28397;-75
2023/04/16 04:30:05;;;;;;;17.43;11.43;;;7.10;99.90;;;;;;487267;244;28350;-75
2023/04/16 04:32:06;;;;;;;20.17;12.37;;;7.10;99.90;;;;;;487283;244;27777;-75
2023/04/16 04:34:07;;;;;;;17.90;11.83;;;7.00;99.90;;;;;;487277;244;27801;-75
2023/04/16 04:36:09;;;;;;;19.63;11.67;;;7.10;99.90;;;;;;487189;244;28065;-75
2023/04/16 04:38:10;;;;;;;19.73;12.57;;;7.00;99.90;;;;;;487249;244;27843;-75
2023/04/16 04:40:11;;;;;;;24.10;14.57;;;7.00;99.90;;;;;;487260;244;28008;-72
2023/04/16 04:42:12;;;;;;;20.53;13.13;;;7.00;99.90;;;;;;487267;244;28230;-76
2023/04/16 04:44:14;;;;;;;21.00;13.43;;;7.00;99.90;;;;;;487260;244;28625;-74
2023/04/16 04:46:15;;;;;;;23.17;13.40;;;7.00;99.90;;;;;;487250;244;28296;-75
2023/04/16 04:48:16;;;;;;;24.60;14.57;;;7.10;99.90;;;;;;487254;243;27927;-76
2023/04/16 04:50:17;;;;;;;28.10;14.17;;;7.00;99.90;;;;;;487260;244;27789;-75
2023/04/16 04:52:19;;;;;;;23.70;13.40;;;7.00;99.90;;;;;;487269;244;27907;-75
2023/04/16 04:54:20;;;;;;;21.47;13.53;;;7.00;99.90;;;;;;487232;244;27984;-76
2023/04/16 04:56:21;;;;;;;22.43;12.83;;;6.90;99.90;;;;;;487222;243;28016;-75
2023/04/16 04:58:22;;;;;;;21.00;13.20;;;7.40;99.90;;;;;;487272;244;27977;-76
2023/04/16 05:00:24;;;;;;;19.93;12.73;;;7.10;99.90;;;;;;487281;244;28335;-75
2023/04/16 05:02:25;;;;;;;21.33;13.47;;;7.00;99.90;;;;;;487284;244;28020;-75
2023/04/16 05:04:26;;;;;;;19.57;12.60;;;7.00;99.90;;;;;;487244;244;27992;-76
2023/04/16 05:06:27;;;;;;;22.10;13.83;;;7.00;99.90;;;;;;487279;244;27916;-75
2023/04/16 05:08:29;;;;;;;20.40;12.97;;;7.00;99.90;;;;;;487295;244;28053;-75
2023/04/16 05:10:30;;;;;;;19.70;12.80;;;7.00;99.90;;;;;;487284;243;27853;-76
2023/04/16 05:12:31;;;;;;;19.33;12.57;;;7.00;99.90;;;;;;487255;244;27930;-75
2023/04/16 05:14:32;;;;;;;22.80;12.60;;;7.00;99.90;;;;;;487209;244;28322;-74
2023/04/16 05:16:34;;;;;;;22.13;13.33;;;7.10;99.90;;;;;;487321;244;27886;-75
2023/04/16 05:18:35;;;;;;;19.70;11.63;;;6.90;99.90;;;;;;487304;244;28023;-75
2023/04/16 05:20:36;;;;;;;20.40;12.33;;;7.00;99.90;;;;;;487313;244;28325;-75
2023/04/16 05:22:38;;;;;;;20.07;12.00;;;7.00;99.90;;;;;;487311;244;27858;-75
2023/04/16 05:24:39;;;;;;;23.53;13.93;;;7.00;99.90;;;;;;487256;244;27887;-75
2023/04/16 05:26:40;;;;;;;23.63;14.03;;;6.80;99.90;;;;;;487284;243;27955;-75
2023/04/16 05:28:41;;;;;;;21.27;12.63;;;7.00;99.90;;;;;;487342;244;27713;-75
2023/04/16 05:30:43;;;;;;;19.03;12.20;;;7.00;99.90;;;;;;487324;244;27742;-75
2023/04/16 05:32:44;;;;;;;20.00;12.00;;;7.00;99.90;;;;;;487256;244;27935;-75
2023/04/16 05:34:45;;;;;;;20.83;12.37;;;7.00;99.90;;;;;;487209;244;27644;-75
2023/04/16 05:36:46;;;;;;;22.80;12.70;;;7.00;99.90;;;;;;487331;244;28313;-75
2023/04/16 05:38:48;;;;;;;21.83;12.37;;;7.10;99.90;;;;;;487305;244;28704;-75
2023/04/16 05:40:49;;;;;;;21.37;11.80;;;7.00;99.90;;;;;;487259;244;27950;-75
2023/04/16 05:42:50;;;;;;;20.47;12.57;;;7.10;99.90;;;;;;487300;244;28000;-75
2023/04/16 05:44:51;;;;;;;21.73;12.13;;;7.10;99.90;;;;;;487219;244;27809;-75
2023/04/16 05:46:53;;;;;;;15.93;10.40;;;7.10;99.90;;;;;;487326;244;27877;-75
2023/04/16 05:48:54;;;;;;;17.53;11.77;;;7.10;99.90;;;;;;487306;244;28071;-75
2023/04/16 05:50:55;;;;;;;19.63;11.20;;;7.10;99.90;;;;;;487286;244;27639;-75
2023/04/16 05:52:56;;;;;;;16.80;10.50;;;7.10;99.90;;;;;;487266;243;27933;-75
2023/04/16 05:55:00;;;;;;;15.00;10.63;;;7.10;99.90;;;;;;487210;244;29177;-75
2023/04/16 05:56:59;;;;;;;16.63;10.70;;;7.10;99.90;;;;;;487149;244;28229;-76
2023/04/16 05:59:00;;;;;;;18.13;10.67;;;7.20;99.90;;;;;;487282;244;27992;-75
2023/04/16 06:01:02;;;;;;;19.47;10.60;;;7.20;99.90;;;;;;487288;244;27560;-75
2023/04/16 06:03:03;;;;;;;18.60;11.97;;;7.20;99.90;;;;;;487255;244;27931;-75
2023/04/16 06:05:04;;;;;;;18.10;11.13;;;7.20;99.90;;;;;;487180;244;27949;-75
2023/04/16 06:07:05;;;;;;;15.83;10.47;;;7.20;99.90;;;;;;487227;244;28103;-75
2023/04/16 06:09:06;;;;;;;16.30;10.57;;;7.30;99.90;;;;;;487296;244;27943;-75
2023/04/16 06:11:08;;;;;;;19.90;11.50;;;7.40;99.90;;;;;;487281;244;27906;-75
2023/04/16 06:13:09;;;;;;;21.40;12.03;;;7.40;99.90;;;;;;487276;244;28376;-75
2023/04/16 06:15:10;;;;;;;19.27;11.67;;;7.30;99.90;;;;;;487195;244;28312;-75
2023/04/16 06:17:11;;;;;;;17.90;10.90;;;7.30;99.90;;;;;;487305;244;27907;-76
2023/04/16 06:19:13;;;;;;;17.30;11.60;;;7.30;99.90;;;;;;487320;244;27826;-75
2023/04/16 06:21:14;;;;;;;19.27;11.50;;;7.30;99.90;;;;;;487297;244;27857;-75
2023/04/16 06:23:15;;;;;;;17.27;11.10;;;7.40;99.90;;;;;;487297;244;27801;-75
2023/04/16 06:25:16;;;;;;;16.90;10.57;;;7.40;99.90;;;;;;487175;244;27652;-75
2023/04/16 06:27:18;;;;;;;20.67;11.70;;;7.40;99.90;;;;;;487248;243;28025;-75
2023/04/16 06:29:19;;;;;;;18.60;11.50;;;7.40;99.90;;;;;;487288;244;28489;-75
2023/04/16 06:31:20;;;;;;;20.03;12.70;;;7.50;99.90;;;;;;487264;244;28181;-75
2023/04/16 06:33:21;;;;;;;17.63;11.43;;;7.30;99.90;;;;;;487257;244;28080;-75
2023/04/16 06:35:23;;;;;;;20.27;11.37;;;7.30;99.90;;;;;;487218;244;27818;-75
2023/04/16 06:37:24;;;;;;;17.67;11.37;;;7.20;99.90;;;;;;487260;244;27906;-75
2023/04/16 06:39:25;;;;;;;17.93;11.50;;;7.30;99.90;;;;;;487201;244;27827;-75
2023/04/16 06:41:27;;;;;;;18.57;11.57;;;7.30;99.90;;;;;;487216;244;27879;-75
2023/04/16 06:43:28;;;;;;;23.87;13.63;;;7.30;99.90;;;;;;487278;244;27926;-75
2023/04/16 06:45:29;;;;;;;19.83;12.10;;;7.20;99.90;;;;;;487201;244;27973;-74
2023/04/16 06:47:30;;;;;;;20.80;12.23;;;7.20;99.90;;;;;;487246;244;28277;-75
2023/04/16 06:49:31;;;;;;;15.53;9.43;;;7.20;99.90;;;;;;487301;244;28334;-75
2023/04/16 06:51:33;;;;;;;21.43;12.43;;;7.20;99.90;;;;;;487288;244;28528;-75
2023/04/16 06:53:36;;;;;;;16.40;10.83;;;7.20;99.90;;;;;;487273;244;27922;-75
2023/04/16 06:55:35;;;;;;;19.33;11.47;;;7.20;99.90;;;;;;487148;244;27987;-75
2023/04/16 06:57:36;;;;;;;16.50;11.13;;;7.20;99.90;;;;;;487253;244;27800;-75
2023/04/16 06:59:38;;;;;;;20.50;12.40;;;7.30;99.90;;;;;;487297;244;27811;-75
2023/04/16 07:01:40;;;;;;;22.63;12.37;;;7.30;99.90;;;;;;487272;244;27754;-76
2023/04/16 07:03:40;;;;;;;21.40;13.20;;;7.20;99.90;;;;;;487232;244;28129;-75
2023/04/16 07:05:42;;;;;;;24.57;13.40;;;7.20;99.90;;;;;;487207;244;27781;-75
2023/04/16 07:07:43;;;;;;;23.60;13.90;;;7.20;99.90;;;;;;487242;244;28159;-75
2023/04/16 07:09:44;;;;;;;20.83;12.30;;;7.20;99.90;;;;;;487278;244;28482;-75
2023/04/16 07:11:45;;;;;;;23.83;13.77;;;7.10;99.90;;;;;;487300;244;27707;-75
2023/04/16 07:13:47;;;;;;;23.03;12.27;;;7.10;99.90;;;;;;487304;244;27797;-74
2023/04/16 07:15:48;;;;;;;27.47;12.80;;;7.10;99.90;;;;;;487209;243;27676;-75
2023/04/16 07:17:49;;;;;;;21.90;13.50;;;7.10;99.90;;;;;;487256;244;27855;-75
2023/04/16 07:19:50;;;;;;;21.47;12.57;;;7.00;99.90;;;;;;487322;244;28175;-75
2023/04/16 07:21:52;;;;;;;23.10;13.07;;;7.10;99.90;;;;;;487258;244;28064;-75
2023/04/16 07:23:53;;;;;;;18.40;11.57;;;7.20;99.90;;;;;;487249;244;28540;-75
2023/04/16 07:25:54;;;;;;;22.57;11.97;;;7.20;99.90;;;;;;487183;243;28369;-75
2023/04/16 07:27:55;;;;;;;18.60;11.30;;;7.10;99.90;;;;;;487280;244;28434;-75
2023/04/16 07:29:57;;;;;;;20.37;12.53;;;7.10;99.90;;;;;;487296;244;28156;-75
2023/04/16 07:31:58;;;;;;;23.40;13.10;;;7.20;99.90;;;;;;487288;243;27805;-75
2023/04/16 07:33:59;;;;;;;22.10;12.83;;;7.20;99.90;;;;;;487259;244;27934;-74
2023/04/16 07:36:00;;;;;;;21.03;12.60;;;7.10;99.90;;;;;;487222;244;28128;-75
2023/04/16 07:38:02;;;;;;;16.80;11.27;;;7.10;99.90;;;;;;487282;244;27861;-75
2023/04/16 07:40:03;;;;;;;20.47;12.33;;;7.20;99.90;;;;;;487303;244;27938;-75
2023/04/16 07:42:04;;;;;;;17.37;11.43;;;7.30;99.90;;;;;;487301;244;28058;-75
2023/04/16 07:44:05;;;;;;;17.83;10.90;;;7.20;99.90;;;;;;487297;244;28011;-75
2023/04/16 07:46:07;;;;;;;17.80;10.33;;;7.20;99.90;;;;;;487230;244;27479;-75
2023/04/16 07:48:08;;;;;;;20.40;11.33;;;7.20;99.90;;;;;;487280;243;27828;-75
2023/04/16 07:50:09;;;;;;;18.70;11.30;;;7.20;99.90;;;;;;487270;244;28206;-76
2023/04/16 07:52:10;;;;;;;19.60;11.90;;;7.10;99.90;;;;;;487257;244;28419;-75
2023/04/16 07:54:12;;;;;;;18.43;11.00;;;7.20;99.90;;;;;;487244;244;28036;-75
2023/04/16 07:56:13;;;;;;;17.13;10.87;;;7.20;99.90;;;;;;487229;244;27961;-75
2023/04/16 07:58:14;;;;;;;16.17;10.50;;;7.30;99.90;;;;;;487305;244;27896;-75
2023/04/16 08:00:15;;;;;;;17.97;10.37;;;7.30;99.90;;;;;;487306;244;28092;-75
2023/04/16 08:02:17;;;;;;;15.93;10.10;;;7.30;99.90;;;;;;487284;244;28091;-75
2023/04/16 08:04:23;;;;;;;18.53;11.23;;;7.40;99.90;;;;;;487254;244;27819;-75
2023/04/16 08:06:19;;;;;;;17.67;9.97;;;7.30;99.90;;;;;;486954;244;27398;-75
2023/04/16 08:08:20;;;;;;;14.37;9.50;;;7.30;99.90;;;;;;487273;244;28596;-75
2023/04/16 08:10:22;;;;;;;18.40;11.77;;;7.40;99.90;;;;;;487285;244;28266;-75
2023/04/16 08:12:23;;;;;;;16.30;10.13;;;7.40;99.90;;;;;;487269;244;27853;-75
2023/04/16 08:14:24;;;;;;;17.33;10.27;;;7.30;99.90;;;;;;487181;244;27700;-75
2023/04/16 08:16:25;;;;;;;17.67;9.93;;;7.40;99.90;;;;;;487253;244;27897;-75
2023/04/16 08:18:27;;;;;;;19.00;10.50;;;7.30;99.90;;;;;;487293;244;28010;-75
2023/04/16 08:20:28;;;;;;;18.30;10.40;;;7.40;99.90;;;;;;487262;244;27659;-75
2023/04/16 08:22:29;;;;;;;16.50;10.47;;;7.30;99.90;;;;;;487256;244;27999;-75
2023/04/16 08:24:31;;;;;;;23.63;11.73;;;7.40;99.90;;;;;;487196;243;27948;-75
2023/04/16 08:26:32;;;;;;;14.90;9.57;;;7.50;99.90;;;;;;487302;244;28665;-75
2023/04/16 08:28:33;;;;;;;15.80;9.97;;;7.40;99.90;;;;;;487290;244;28289;-75
2023/04/16 08:30:34;;;;;;;16.70;10.50;;;7.50;99.90;;;;;;487301;244;28396;-75
2023/04/16 08:32:36;;;;;;;14.77;9.80;;;7.50;99.90;;;;;;487253;244;27942;-75
2023/04/16 08:34:37;;;;;;;15.73;8.63;;;7.50;99.90;;;;;;487207;244;27423;-75
2023/04/16 08:36:38;;;;;;;14.20;9.10;;;7.50;99.90;;;;;;487289;244;27801;-75
2023/04/16 08:38:39;;;;;;;16.80;10.40;;;7.50;99.90;;;;;;487314;244;27863;-75
2023/04/16 08:40:41;;;;;;;16.13;10.30;;;7.60;99.90;;;;;;487287;244;27786;-75
2023/04/16 08:42:42;;;;;;;13.97;9.23;;;7.50;99.90;;;;;;487256;244;27965;-75
2023/04/16 08:44:43;;;;;;;15.37;9.83;;;7.60;99.90;;;;;;487202;244;27676;-75
2023/04/16 08:46:44;;;;;;;16.93;9.63;;;7.60;99.90;;;;;;487315;244;28130;-75
2023/04/16 08:48:46;;;;;;;16.23;10.03;;;7.60;99.90;;;;;;487281;244;28187;-75
2023/04/16 08:50:47;;;;;;;13.40;9.23;;;7.70;99.90;;;;;;487291;244;28394;-75
2023/04/16 08:52:48;;;;;;;20.47;11.13;;;7.80;99.90;;;;;;487219;244;28550;-76
2023/04/16 08:54:49;;;;;;;15.00;9.13;;;7.70;99.90;;;;;;487215;244;27951;-76
2023/04/16 08:56:51;;;;;;;14.07;9.90;;;7.70;99.90;;;;;;487310;244;27913;-75
2023/04/16 08:58:52;;;;;;;16.40;11.17;;;7.70;99.90;;;;;;487320;244;27879;-75
2023/04/16 09:00:53;;;;;;;13.37;9.30;;;7.80;99.90;;;;;;487198;244;27920;-75
2023/04/16 09:02:54;;;;;;;13.93;8.87;;;7.80;99.90;;;;;;487297;244;27629;-75
2023/04/16 09:04:56;;;;;;;14.60;8.93;;;7.90;99.90;;;;;;487228;243;27806;-75
2023/04/16 09:06:57;;;;;;;12.60;8.63;;;7.90;99.90;;;;;;487293;244;27874;-76
2023/04/16 09:08:58;;;;;;;14.10;9.53;;;8.00;99.90;;;;;;487296;244;27922;-75
2023/04/16 09:10:59;;;;;;;16.40;10.43;;;7.90;99.90;;;;;;487310;244;28364;-75
2023/04/16 09:13:01;;;;;;;13.10;8.97;;;8.00;99.90;;;;;;487293;244;28349;-75
2023/04/16 09:15:03;;;;;;;14.33;10.10;;;7.90;99.90;;;;;;487218;244;28287;-76
2023/04/16 09:17:03;;;;;;;13.20;9.30;;;8.00;99.90;;;;;;487203;244;28056;-75
2023/04/16 09:19:04;;;;;;;15.40;10.07;;;8.10;99.90;;;;;;487334;244;27895;-75
2023/04/16 09:21:06;;;;;;;15.90;10.60;;;8.00;99.90;;;;;;487320;244;27981;-75
2023/04/16 09:23:07;;;;;;;16.20;9.50;;;8.20;99.90;;;;;;487322;244;27959;-75
2023/04/16 09:25:08;;;;;;;14.77;9.80;;;8.10;99.90;;;;;;487246;244;27633;-75
2023/04/16 09:27:09;;;;;;;18.70;10.20;;;8.10;99.90;;;;;;487252;244;27753;-75
2023/04/16 09:29:11;;;;;;;17.05;10.18;;;8.20;99.90;;;;;;483581;244;36082;-76
2023/04/16 09:31:12;;;;;;;15.33;9.77;;;8.30;99.90;;;;;;487341;244;27908;-76
2023/04/16 09:33:15;;;;;;;14.40;9.37;;;8.30;99.90;;;;;;487272;244;28311;-75
2023/04/16 09:35:15;;;;;;;14.33;9.37;;;8.30;99.90;;;;;;487114;244;27950;-76
2023/04/16 09:37:16;;;;;;;16.27;9.90;;;8.40;99.90;;;;;;487273;243;28356;-76
2023/04/16 09:39:17;;;;;;;17.03;10.17;;;8.40;99.90;;;;;;487305;244;27956;-76
2023/04/16 09:41:18;;;;;;;16.93;9.40;;;8.40;99.90;;;;;;487325;244;27758;-75
2023/04/16 09:43:19;;;;;;;14.70;10.00;;;8.40;99.90;;;;;;487300;244;27988;-75
2023/04/16 09:45:21;;;;;;;16.27;9.60;;;8.40;99.90;;;;;;487225;244;28010;-76
2023/04/16 09:47:22;;;;;;;15.30;9.83;;;8.40;99.90;;;;;;487279;244;27815;-75
2023/04/16 09:49:23;;;;;;;12.60;8.60;;;8.50;99.90;;;;;;487299;244;27845;-75
2023/04/16 09:51:25;;;;;;;15.83;10.00;;;8.50;99.90;;;;;;487273;244;28041;-75
2023/04/16 09:53:26;;;;;;;14.60;9.70;;;8.40;99.90;;;;;;487263;244;28188;-76
2023/04/16 09:55:27;;;;;;;15.50;10.13;;;8.40;99.90;;;;;;487235;244;28509;-75
2023/04/16 09:57:28;;;;;;;16.73;10.00;;;8.30;99.90;;;;;;487286;244;28332;-75
2023/04/16 09:59:32;;;;;;;16.50;9.83;;;8.30;99.90;;;;;;487295;244;27631;-76
2023/04/16 10:01:31;;;;;;;14.07;8.70;;;8.30;99.90;;;;;;487088;244;27784;-76
2023/04/16 10:03:32;;;;;;;13.73;9.30;;;8.30;99.90;;;;;;487293;243;27838;-75
2023/04/16 10:05:33;;;;;;;13.13;8.90;;;8.30;99.90;;;;;;487221;244;27887;-75
2023/04/16 10:07:35;;;;;;;16.10;10.23;;;8.30;99.90;;;;;;487273;244;27915;-75
2023/04/16 10:09:36;;;;;;;14.80;9.10;;;8.30;99.90;;;;;;487317;244;28058;-76
2023/04/16 10:11:37;;;;;;;16.60;10.10;;;8.10;99.90;;;;;;487260;244;27922;-75
2023/04/16 10:13:38;;;;;;;15.13;9.47;;;8.10;99.90;;;;;;487257;244;27774;-75
2023/04/16 10:15:39;;;;;;;14.37;9.40;;;8.20;99.90;;;;;;487215;244;27996;-75
2023/04/16 10:17:41;;;;;;;16.27;10.17;;;8.20;99.90;;;;;;487297;244;28465;-75
2023/04/16 10:19:42;;;;;;;15.27;9.20;;;8.20;99.90;;;;;;487304;243;28318;-76
2023/04/16 10:21:43;;;;;;;16.30;10.77;;;8.20;99.90;;;;;;487301;244;27821;-75
2023/04/16 10:23:45;;;;;;;17.80;10.63;;;8.30;99.90;;;;;;487263;244;27750;-75
2023/04/16 10:25:46;;;;;;;17.53;10.57;;;8.30;99.90;;;;;;487189;244;27774;-76